createdAt,value
2023-03-01T01:52:27.878Z,80.00
2023-03-01T02:00:08.151Z,80.40
2023-03-01T03:36:48.999Z,80.30
2023-03-01T03:48:04.702Z,80.00
2023-03-01T03:51:11.848Z,82.00
2023-03-01T05:27:40.734Z,80.20
2023-03-01T05:30:15.162Z,81.90
2023-03-01T05:32:45.349Z,82.30
2023-03-01T05:35:15.147Z,81.70
2023-03-01T05:37:44.101Z,82.50
2023-03-01T05:40:16.471Z,82.00
2023-03-01T05:42:50.955Z,82.50
2023-03-01T05:45:20.351Z,83.90
2023-03-01T05:47:51.869Z,82.90
2023-03-01T05:50:21.928Z,85.20
2023-03-01T05:52:50.999Z,84.70
2023-03-01T05:55:20.846Z,84.20
2023-03-01T05:57:50.727Z,84.00
2023-03-01T06:00:20.640Z,85.30
2023-03-01T06:02:48.484Z,82.40
2023-03-01T06:05:17.083Z,83.10
2023-03-01T06:07:44.951Z,83.70
2023-03-01T06:10:14.138Z,84.20
2023-03-01T06:12:43.532Z,85.00
2023-03-01T06:15:14.991Z,85.30
2023-03-01T06:17:44.651Z,86.00
2023-03-01T06:20:15.633Z,85.90
2023-03-01T17:30:57.086Z,59.40
2023-03-01T19:36:33.295Z,62.30
2023-03-01T19:39:02.673Z,61.60
2023-03-01T19:41:31.277Z,61.50
2023-03-01T19:44:02.727Z,62.10
2023-03-01T19:46:32.047Z,62.20
2023-03-01T19:49:01.041Z,63.10
2023-03-01T19:51:33.271Z,61.70
2023-03-01T19:54:01.437Z,64.00
2023-03-01T19:56:31.523Z,63.60
2023-03-01T19:59:04.060Z,62.50
2023-03-01T20:13:02.433Z,63.40
2023-03-01T20:15:30.588Z,65.60
2023-03-01T20:17:58.367Z,63.70
2023-03-01T20:20:26.339Z,66.40
2023-03-01T20:22:54.183Z,64.30
2023-03-01T20:25:22.006Z,64.70
2023-03-01T20:27:51.680Z,62.90
2023-03-01T20:30:21.078Z,63.70
2023-03-01T20:32:49.006Z,63.90
2023-03-01T20:35:16.907Z,66.30
2023-03-01T20:37:44.782Z,64.30
2023-03-01T20:40:13.710Z,64.90
2023-03-01T20:42:41.626Z,64.50
2023-03-01T20:45:10.077Z,64.30
2023-03-01T20:47:49.459Z,64.60
2023-03-01T20:50:18.374Z,64.40
2023-03-01T20:52:47.964Z,63.20
2023-03-01T20:55:15.894Z,64.70
2023-03-01T20:57:43.889Z,65.80
2023-03-01T21:00:12.885Z,65.40
2023-03-01T21:02:42.424Z,65.10
2023-03-01T21:05:11.104Z,66.60
2023-03-01T21:07:38.985Z,66.90
2023-03-01T21:10:07.308Z,67.20
2023-03-01T21:12:35.265Z,67.70
2023-03-01T21:15:03.089Z,67.20
2023-03-01T21:17:30.896Z,68.10
2023-03-01T21:20:00.051Z,67.40
2023-03-01T21:22:29.025Z,68.60
2023-03-01T21:24:56.915Z,66.90
2023-03-01T21:27:24.730Z,66.90
2023-03-01T21:29:52.647Z,69.50
2023-03-01T21:32:20.640Z,66.80
2023-03-01T21:34:48.697Z,68.20
2023-03-01T21:37:19.374Z,68.10
2023-03-01T21:39:47.217Z,68.80
2023-03-01T21:42:15.053Z,68.00
2023-03-01T21:44:42.968Z,68.90
2023-03-01T21:47:11.063Z,68.60
2023-03-01T21:49:39.098Z,68.30
2023-03-01T21:52:07.115Z,68.80
2023-03-01T21:54:36.294Z,67.60
2023-03-01T21:57:04.283Z,68.10
2023-03-01T21:59:32.180Z,68.60
2023-03-01T22:02:00.242Z,67.60
2023-03-01T22:04:28.212Z,68.20
2023-03-01T22:06:56.074Z,67.90
2023-03-01T22:09:24.737Z,69.10
2023-03-01T22:11:58.648Z,67.30
2023-03-01T22:14:27.342Z,68.70
2023-03-01T22:16:55.604Z,67.70
2023-03-01T22:19:23.988Z,68.80
2023-03-01T22:21:53.369Z,68.40
2023-03-01T22:24:23.061Z,68.70
2023-03-01T22:26:53.752Z,68.70
2023-03-01T22:29:23.821Z,68.80
2023-03-01T22:31:54.325Z,69.70
2023-03-01T22:34:22.689Z,70.40
2023-03-01T22:36:50.688Z,70.70
2023-03-01T22:39:20.721Z,69.70
2023-03-01T22:41:50.145Z,71.50
2023-03-01T22:44:22.813Z,69.20
2023-03-01T22:46:51.247Z,69.80
2023-03-01T22:49:19.322Z,68.90
2023-03-01T22:51:48.051Z,70.60
2023-03-01T22:54:17.614Z,71.30
2023-03-01T23:09:32.656Z,72.70
2023-03-01T23:12:07.353Z,73.10
2023-03-01T23:14:38.157Z,72.40
2023-03-01T23:17:07.923Z,73.30
2023-03-01T23:19:35.824Z,73.30
2023-03-01T23:22:03.609Z,71.90
2023-03-01T23:24:32.450Z,72.90
2023-03-01T23:27:01.989Z,71.40
2023-03-01T23:29:31.529Z,74.00
2023-03-01T23:32:00.274Z,74.80
2023-03-01T23:34:28.385Z,74.40
2023-03-01T23:36:58.404Z,75.50
2023-03-01T23:39:26.315Z,74.90
2023-03-01T23:41:54.218Z,75.70
2023-03-01T23:44:23.227Z,75.40
2023-03-01T23:46:52.688Z,75.90
2023-03-01T23:49:23.046Z,75.70
2023-03-01T23:51:50.901Z,75.90
2023-03-01T23:54:20.735Z,74.80
2023-03-01T23:56:48.688Z,74.80
2023-03-01T23:59:19.578Z,74.70
